sensor_id;sensor_type;location;lat;lon;timestamp;pressure;altitude;pressure_sealevel;temperature;humidity
10652;BME280;5374;42.742;23.266;2023-08-07T00:01:38;94864.81;;;17.66;100.00
10652;BME280;5374;42.742;23.266;2023-08-07T00:04:26;94873.72;;;17.75;100.00
10652;BME280;5374;42.742;23.266;2023-08-07T00:07:13;94875.91;;;17.73;100.00
10652;BME280;5374;42.742;23.266;2023-08-07T00:10:01;94886.41;;;17.84;100.00
10652;BME280;5374;42.742;23.266;2023-08-07T00:12:48;94875.19;;;17.90;100.00
10652;BME280;5374;42.742;23.266;2023-08-07T00:15:37;94883.88;;;17.87;100.00
10652;BME280;5374;42.742;23.266;2023-08-07T00:18:24;94881.94;;;17.79;100.00
10652;BME280;5374;42.742;23.266;2023-08-07T00:21:13;94897.16;;;17.84;100.00
10652;BME280;5374;42.742;23.266;2023-08-07T00:24:00;94901.56;;;17.88;100.00
10652;BME280;5374;42.742;23.266;2023-08-07T00:26:47;94900.28;;;17.86;100.00
10652;BME280;5374;42.742;23.266;2023-08-07T00:29:34;94900.47;;;17.89;100.00
10652;BME280;5374;42.742;23.266;2023-08-07T00:32:22;94894.09;;;17.76;100.00
10652;BME280;5374;42.742;23.266;2023-08-07T00:35:09;94898.50;;;17.72;100.00
10652;BME280;5374;42.742;23.266;2023-08-07T00:37:57;94891.97;;;17.65;100.00
10652;BME280;5374;42.742;23.266;2023-08-07T00:40:44;94889.28;;;17.65;100.00
10652;BME280;5374;42.742;23.266;2023-08-07T00:43:31;94906.97;;;17.66;100.00
10652;BME280;5374;42.742;23.266;2023-08-07T00:46:19;94893.25;;;17.67;100.00
10652;BME280;5374;42.742;23.266;2023-08-07T00:49:08;94881.34;;;17.60;100.00
10652;BME280;5374;42.742;23.266;2023-08-07T00:51:56;94884.88;;;17.69;100.00
10652;BME280;5374;42.742;23.266;2023-08-07T00:54:45;94897.22;;;17.70;100.00
10652;BME280;5374;42.742;23.266;2023-08-07T00:57:32;94893.59;;;17.74;100.00
10652;BME280;5374;42.742;23.266;2023-08-07T01:00:20;94897.69;;;17.72;100.00
10652;BME280;5374;42.742;23.266;2023-08-07T01:03:07;94903.84;;;17.72;100.00
10652;BME280;5374;42.742;23.266;2023-08-07T01:05:54;94899.59;;;17.71;100.00
10652;BME280;5374;42.742;23.266;2023-08-07T01:08:42;94910.34;;;17.71;100.00
10652;BME280;5374;42.742;23.266;2023-08-07T01:11:34;94916.91;;;17.65;100.00
10652;BME280;5374;42.742;23.266;2023-08-07T01:14:28;94922.56;;;17.64;100.00
10652;BME280;5374;42.742;23.266;2023-08-07T01:17:21;94929.03;;;17.63;100.00
10652;BME280;5374;42.742;23.266;2023-08-07T01:20:09;94932.84;;;17.62;100.00
10652;BME280;5374;42.742;23.266;2023-08-07T01:22:59;94935.84;;;17.60;100.00
10652;BME280;5374;42.742;23.266;2023-08-07T01:25:46;94932.66;;;17.58;100.00
10652;BME280;5374;42.742;23.266;2023-08-07T01:28:37;94931.56;;;17.59;100.00
10652;BME280;5374;42.742;23.266;2023-08-07T01:31:25;94917.28;;;17.50;100.00
10652;BME280;5374;42.742;23.266;2023-08-07T01:34:18;94926.31;;;17.54;100.00
10652;BME280;5374;42.742;23.266;2023-08-07T01:37:07;94932.47;;;17.55;100.00
10652;BME280;5374;42.742;23.266;2023-08-07T01:39:57;94939.25;;;17.52;100.00
10652;BME280;5374;42.742;23.266;2023-08-07T01:42:46;94933.06;;;17.52;100.00
10652;BME280;5374;42.742;23.266;2023-08-07T01:45:33;94937.16;;;17.49;100.00
10652;BME280;5374;42.742;23.266;2023-08-07T01:48:20;94931.31;;;17.47;100.00
10652;BME280;5374;42.742;23.266;2023-08-07T01:51:07;94935.38;;;17.44;100.00
10652;BME280;5374;42.742;23.266;2023-08-07T01:53:55;94928.13;;;17.45;100.00
10652;BME280;5374;42.742;23.266;2023-08-07T01:56:43;94933.59;;;17.40;100.00
10652;BME280;5374;42.742;23.266;2023-08-07T01:59:30;94938.03;;;17.36;100.00
10652;BME280;5374;42.742;23.266;2023-08-07T02:02:17;94935.34;;;17.36;100.00
10652;BME280;5374;42.742;23.266;2023-08-07T02:05:05;94923.84;;;17.22;100.00
10652;BME280;5374;42.742;23.266;2023-08-07T02:07:52;94933.38;;;17.28;100.00
10652;BME280;5374;42.742;23.266;2023-08-07T02:10:42;94921.91;;;17.14;100.00
10652;BME280;5374;42.742;23.266;2023-08-07T02:13:30;94945.31;;;17.22;100.00
10652;BME280;5374;42.742;23.266;2023-08-07T02:16:18;94942.78;;;17.17;100.00
10652;BME280;5374;42.742;23.266;2023-08-07T02:19:05;94953.31;;;17.13;100.00
10652;BME280;5374;42.742;23.266;2023-08-07T02:21:52;94941.69;;;17.04;100.00
10652;BME280;5374;42.742;23.266;2023-08-07T02:24:39;94956.69;;;17.05;100.00
10652;BME280;5374;42.742;23.266;2023-08-07T02:27:26;94966.13;;;17.02;100.00
10652;BME280;5374;42.742;23.266;2023-08-07T02:30:15;94958.28;;;17.06;100.00
10652;BME280;5374;42.742;23.266;2023-08-07T02:33:02;94956.41;;;17.06;100.00
10652;BME280;5374;42.742;23.266;2023-08-07T02:35:49;94967.13;;;17.06;100.00
10652;BME280;5374;42.742;23.266;2023-08-07T02:38:36;94966.63;;;17.04;100.00
10652;BME280;5374;42.742;23.266;2023-08-07T02:41:23;94967.44;;;17.05;100.00
10652;BME280;5374;42.742;23.266;2023-08-07T02:44:11;94956.81;;;17.00;100.00
10652;BME280;5374;42.742;23.266;2023-08-07T02:46:59;94961.56;;;17.03;100.00
10652;BME280;5374;42.742;23.266;2023-08-07T02:49:46;94964.44;;;17.06;100.00
10652;BME280;5374;42.742;23.266;2023-08-07T02:52:33;94956.81;;;17.00;100.00
10652;BME280;5374;42.742;23.266;2023-08-07T02:55:21;94969.81;;;17.06;100.00
10652;BME280;5374;42.742;23.266;2023-08-07T02:58:08;94967.63;;;17.08;100.00
10652;BME280;5374;42.742;23.266;2023-08-07T03:00:55;94967.63;;;17.08;100.00
10652;BME280;5374;42.742;23.266;2023-08-07T03:03:43;94968.13;;;17.11;100.00
10652;BME280;5374;42.742;23.266;2023-08-07T03:06:30;94977.75;;;17.12;100.00
10652;BME280;5374;42.742;23.266;2023-08-07T03:09:17;94975.06;;;17.12;100.00
10652;BME280;5374;42.742;23.266;2023-08-07T03:12:05;94979.03;;;17.14;100.00
10652;BME280;5374;42.742;23.266;2023-08-07T03:14:52;94991.16;;;17.12;100.00
10652;BME280;5374;42.742;23.266;2023-08-07T03:17:39;94987.91;;;17.01;100.00
10652;BME280;5374;42.742;23.266;2023-08-07T03:20:28;94984.16;;;16.88;100.00
10652;BME280;5374;42.742;23.266;2023-08-07T03:23:15;94982.47;;;16.65;100.00
10652;BME280;5374;42.742;23.266;2023-08-07T03:26:03;94987.84;;;16.65;100.00
10652;BME280;5374;42.742;23.266;2023-08-07T03:28:51;94995.16;;;16.73;100.00
10652;BME280;5374;42.742;23.266;2023-08-07T03:31:38;95003.63;;;16.80;100.00
10652;BME280;5374;42.742;23.266;2023-08-07T03:34:25;95010.88;;;16.80;100.00
10652;BME280;5374;42.742;23.266;2023-08-07T03:37:13;95016.13;;;16.85;100.00
10652;BME280;5374;42.742;23.266;2023-08-07T03:40:00;95023.19;;;16.94;100.00
10652;BME280;5374;42.742;23.266;2023-08-07T03:42:48;95030.72;;;17.06;100.00
10652;BME280;5374;42.742;23.266;2023-08-07T03:45:35;95023.88;;;17.14;100.00
10652;BME280;5374;42.742;23.266;2023-08-07T03:48:22;95031.78;;;17.32;100.00
10652;BME280;5374;42.742;23.266;2023-08-07T03:51:09;95029.63;;;17.43;100.00
10652;BME280;5374;42.742;23.266;2023-08-07T03:53:58;95045.03;;;17.51;100.00
10652;BME280;5374;42.742;23.266;2023-08-07T03:56:45;95040.56;;;17.60;100.00
10652;BME280;5374;42.742;23.266;2023-08-07T03:59:32;95040.03;;;17.72;100.00
10652;BME280;5374;42.742;23.266;2023-08-07T04:02:19;95044.63;;;17.94;100.00
10652;BME280;5374;42.742;23.266;2023-08-07T04:05:07;95031.88;;;18.30;100.00
10652;BME280;5374;42.742;23.266;2023-08-07T04:07:54;95028.31;;;20.26;100.00
10652;BME280;5374;42.742;23.266;2023-08-07T04:10:42;95042.84;;;22.97;70.28
10652;BME280;5374;42.742;23.266;2023-08-07T04:13:31;95044.31;;;24.95;58.52
10652;BME280;5374;42.742;23.266;2023-08-07T04:16:18;95051.78;;;26.58;52.67
10652;BME280;5374;42.742;23.266;2023-08-07T04:19:05;95060.44;;;27.54;48.72
10652;BME280;5374;42.742;23.266;2023-08-07T04:21:53;95077.16;;;28.66;44.72
10652;BME280;5374;42.742;23.266;2023-08-07T04:24:40;95071.91;;;29.27;43.04
10652;BME280;5374;42.742;23.266;2023-08-07T04:27:29;95080.53;;;29.84;41.57
10652;BME280;5374;42.742;23.266;2023-08-07T04:30:16;95085.13;;;30.32;40.42
10652;BME280;5374;42.742;23.266;2023-08-07T04:33:03;95087.69;;;30.83;39.10
10652;BME280;5374;42.742;23.266;2023-08-07T04:35:50;95087.00;;;31.25;37.95
10652;BME280;5374;42.742;23.266;2023-08-07T04:38:37;95083.88;;;31.48;37.36
10652;BME280;5374;42.742;23.266;2023-08-07T04:41:24;95090.00;;;32.48;36.18
10652;BME280;5374;42.742;23.266;2023-08-07T04:44:13;95090.78;;;33.25;34.56
10652;BME280;5374;42.742;23.266;2023-08-07T04:47:01;95089.72;;;34.08;33.03
10652;BME280;5374;42.742;23.266;2023-08-07T04:49:48;95090.25;;;35.52;31.10
10652;BME280;5374;42.742;23.266;2023-08-07T04:52:35;95096.75;;;36.75;28.92
10652;BME280;5374;42.742;23.266;2023-08-07T04:55:22;95087.31;;;37.93;27.63
10652;BME280;5374;42.742;23.266;2023-08-07T04:58:10;95087.56;;;38.15;27.10
10652;BME280;5374;42.742;23.266;2023-08-07T05:00:59;95088.53;;;39.20;26.17
10652;BME280;5374;42.742;23.266;2023-08-07T05:03:46;95091.44;;;40.15;24.72
10652;BME280;5374;42.742;23.266;2023-08-07T05:06:33;95091.09;;;40.47;24.73
10652;BME280;5374;42.742;23.266;2023-08-07T05:09:20;95075.22;;;41.31;23.37
10652;BME280;5374;42.742;23.266;2023-08-07T05:12:08;95069.47;;;41.66;22.74
10652;BME280;5374;42.742;23.266;2023-08-07T05:14:55;95053.13;;;42.23;22.55
10652;BME280;5374;42.742;23.266;2023-08-07T05:17:44;95080.03;;;43.08;21.66
10652;BME280;5374;42.742;23.266;2023-08-07T05:20:31;95074.50;;;43.98;21.42
10652;BME280;5374;42.742;23.266;2023-08-07T05:23:18;95072.16;;;44.44;20.32
10652;BME280;5374;42.742;23.266;2023-08-07T05:26:05;95083.81;;;44.81;20.18
10652;BME280;5374;42.742;23.266;2023-08-07T05:28:52;95087.31;;;45.35;19.81
10652;BME280;5374;42.742;23.266;2023-08-07T05:31:41;95083.06;;;45.75;19.11
10652;BME280;5374;42.742;23.266;2023-08-07T05:34:30;95085.91;;;45.60;18.96
10652;BME280;5374;42.742;23.266;2023-08-07T05:37:17;95091.69;;;45.71;18.86
10652;BME280;5374;42.742;23.266;2023-08-07T05:40:05;95082.72;;;45.87;18.56
10652;BME280;5374;42.742;23.266;2023-08-07T05:42:53;95098.84;;;46.27;18.57
10652;BME280;5374;42.742;23.266;2023-08-07T05:45:40;95094.84;;;46.34;18.50
10652;BME280;5374;42.742;23.266;2023-08-07T05:48:28;95101.97;;;45.94;18.58
10652;BME280;5374;42.742;23.266;2023-08-07T05:51:17;95099.97;;;45.30;18.99
10652;BME280;5374;42.742;23.266;2023-08-07T05:54:05;95093.97;;;44.40;19.32
10652;BME280;5374;42.742;23.266;2023-08-07T05:56:52;95100.84;;;42.98;20.30
10652;BME280;5374;42.742;23.266;2023-08-07T05:59:39;95086.56;;;41.77;21.38
10652;BME280;5374;42.742;23.266;2023-08-07T06:02:27;95090.00;;;40.67;22.68
10652;BME280;5374;42.742;23.266;2023-08-07T06:05:14;95080.19;;;39.71;23.49
10652;BME280;5374;42.742;23.266;2023-08-07T06:08:03;95069.66;;;38.32;24.75
10652;BME280;5374;42.742;23.266;2023-08-07T06:10:50;95084.59;;;36.88;27.20
10652;BME280;5374;42.742;23.266;2023-08-07T06:13:37;95077.75;;;36.37;27.67
10652;BME280;5374;42.742;23.266;2023-08-07T06:16:25;95071.59;;;35.83;28.32
10652;BME280;5374;42.742;23.266;2023-08-07T06:19:13;95071.66;;;35.29;28.46
10652;BME280;5374;42.742;23.266;2023-08-07T06:22:00;95065.31;;;34.75;29.98
10652;BME280;5374;42.742;23.266;2023-08-07T06:24:48;95052.25;;;34.48;30.19
10652;BME280;5374;42.742;23.266;2023-08-07T06:27:35;95055.88;;;34.08;30.40
10652;BME280;5374;42.742;23.266;2023-08-07T06:30:23;95056.00;;;33.93;30.47
10652;BME280;5374;42.742;23.266;2023-08-07T06:33:10;95047.03;;;33.41;30.71
10652;BME280;5374;42.742;23.266;2023-08-07T06:35:57;95053.91;;;33.12;31.87
10652;BME280;5374;42.742;23.266;2023-08-07T06:38:44;95058.03;;;32.82;31.65
10652;BME280;5374;42.742;23.266;2023-08-07T06:41:33;95064.47;;;32.51;33.10
10652;BME280;5374;42.742;23.266;2023-08-07T06:44:20;95062.94;;;32.39;32.26
10652;BME280;5374;42.742;23.266;2023-08-07T06:47:07;95068.09;;;32.23;31.70
10652;BME280;5374;42.742;23.266;2023-08-07T06:49:55;95055.47;;;32.36;31.62
10652;BME280;5374;42.742;23.266;2023-08-07T06:52:42;95062.16;;;32.32;32.34
10652;BME280;5374;42.742;23.266;2023-08-07T06:55:29;95077.13;;;32.20;32.59
10652;BME280;5374;42.742;23.266;2023-08-07T06:58:17;95069.19;;;32.47;32.35
10652;BME280;5374;42.742;23.266;2023-08-07T07:01:04;95069.97;;;32.47;31.96
10652;BME280;5374;42.742;23.266;2023-08-07T07:03:51;95067.16;;;32.61;32.35
10652;BME280;5374;42.742;23.266;2023-08-07T07:06:39;95063.19;;;32.70;32.30
10652;BME280;5374;42.742;23.266;2023-08-07T07:09:26;95056.63;;;32.46;32.64
10652;BME280;5374;42.742;23.266;2023-08-07T07:12:14;95055.38;;;32.57;32.83
10652;BME280;5374;42.742;23.266;2023-08-07T07:15:03;95062.03;;;32.63;32.43
10652;BME280;5374;42.742;23.266;2023-08-07T07:17:50;95057.72;;;32.62;31.24
10652;BME280;5374;42.742;23.266;2023-08-07T07:20:38;95060.06;;;32.68;31.49
10652;BME280;5374;42.742;23.266;2023-08-07T07:23:25;95059.66;;;32.69;30.74
10652;BME280;5374;42.742;23.266;2023-08-07T07:26:12;95052.31;;;32.48;30.36
10652;BME280;5374;42.742;23.266;2023-08-07T07:28:59;95046.06;;;32.34;31.50
10652;BME280;5374;42.742;23.266;2023-08-07T07:31:47;95054.34;;;32.30;31.89
10652;BME280;5374;42.742;23.266;2023-08-07T07:34:34;95042.13;;;32.42;31.61
10652;BME280;5374;42.742;23.266;2023-08-07T07:37:22;95044.38;;;32.57;31.91
10652;BME280;5374;42.742;23.266;2023-08-07T07:40:10;95045.94;;;32.62;30.55
10652;BME280;5374;42.742;23.266;2023-08-07T07:42:57;95046.06;;;32.37;31.56
10652;BME280;5374;42.742;23.266;2023-08-07T07:45:44;95044.16;;;32.16;31.27
10652;BME280;5374;42.742;23.266;2023-08-07T07:48:33;95055.59;;;31.93;31.24
10652;BME280;5374;42.742;23.266;2023-08-07T07:51:20;95057.56;;;31.97;30.92
10652;BME280;5374;42.742;23.266;2023-08-07T07:54:07;95062.25;;;32.00;29.73
10652;BME280;5374;42.742;23.266;2023-08-07T07:56:54;95034.47;;;31.76;29.59
10652;BME280;5374;42.742;23.266;2023-08-07T07:59:41;95043.47;;;31.80;29.86
10652;BME280;5374;42.742;23.266;2023-08-07T08:02:29;95048.56;;;31.85;30.09
10652;BME280;5374;42.742;23.266;2023-08-07T08:05:17;95018.72;;;31.87;30.30
10652;BME280;5374;42.742;23.266;2023-08-07T08:08:05;95040.63;;;32.16;30.49
10652;BME280;5374;42.742;23.266;2023-08-07T08:10:53;95040.66;;;32.05;29.83
10652;BME280;5374;42.742;23.266;2023-08-07T08:13:40;95046.16;;;32.02;30.15
10652;BME280;5374;42.742;23.266;2023-08-07T08:16:27;95044.19;;;32.06;29.11
10652;BME280;5374;42.742;23.266;2023-08-07T08:19:14;95023.41;;;32.05;29.91
10652;BME280;5374;42.742;23.266;2023-08-07T08:22:04;95037.13;;;32.05;29.75
10652;BME280;5374;42.742;23.266;2023-08-07T08:24:51;95037.97;;;31.80;28.80
10652;BME280;5374;42.742;23.266;2023-08-07T08:27:38;95036.38;;;31.93;29.19
10652;BME280;5374;42.742;23.266;2023-08-07T08:30:25;95032.03;;;32.07;30.60
10652;BME280;5374;42.742;23.266;2023-08-07T08:33:12;95030.06;;;32.04;29.87
10652;BME280;5374;42.742;23.266;2023-08-07T08:36:00;95028.50;;;32.03;30.15
10652;BME280;5374;42.742;23.266;2023-08-07T08:38:48;95019.56;;;31.63;30.18
10652;BME280;5374;42.742;23.266;2023-08-07T08:41:37;95020.34;;;31.56;31.67
10652;BME280;5374;42.742;23.266;2023-08-07T08:44:26;95013.28;;;31.66;30.65
10652;BME280;5374;42.742;23.266;2023-08-07T08:47:16;95020.34;;;31.60;29.94
10652;BME280;5374;42.742;23.266;2023-08-07T08:50:06;95024.25;;;31.59;31.67
10652;BME280;5374;42.742;23.266;2023-08-07T08:52:55;95014.84;;;31.53;30.36
10652;BME280;5374;42.742;23.266;2023-08-07T08:55:45;95004.66;;;31.43;29.95
10652;BME280;5374;42.742;23.266;2023-08-07T08:58:33;95013.28;;;31.55;32.64
10652;BME280;5374;42.742;23.266;2023-08-07T09:01:21;95010.94;;;31.61;30.09
10652;BME280;5374;42.742;23.266;2023-08-07T09:04:09;95018.78;;;31.27;29.80
10652;BME280;5374;42.742;23.266;2023-08-07T09:06:56;95015.66;;;31.14;31.29
10652;BME280;5374;42.742;23.266;2023-08-07T09:09:44;95007.81;;;31.27;32.07
10652;BME280;5374;42.742;23.266;2023-08-07T09:12:34;95015.66;;;31.28;31.05
10652;BME280;5374;42.742;23.266;2023-08-07T09:15:23;95005.47;;;31.25;32.12
10652;BME280;5374;42.742;23.266;2023-08-07T09:18:12;94977.63;;;31.09;31.53
10652;BME280;5374;42.742;23.266;2023-08-07T09:20:59;94987.81;;;31.05;30.55
10652;BME280;5374;42.742;23.266;2023-08-07T09:23:47;95003.88;;;30.85;28.81
10652;BME280;5374;42.742;23.266;2023-08-07T09:26:34;94997.44;;;30.32;29.09
10652;BME280;5374;42.742;23.266;2023-08-07T09:29:22;94989.25;;;30.35;30.63
10652;BME280;5374;42.742;23.266;2023-08-07T09:32:12;94999.06;;;30.47;31.17
10652;BME280;5374;42.742;23.266;2023-08-07T09:35:02;94988.16;;;30.57;31.91
10652;BME280;5374;42.742;23.266;2023-08-07T09:38:04;94985.06;;;30.70;32.08
10652;BME280;5374;42.742;23.266;2023-08-07T09:40:51;94987.81;;;30.84;32.37
10652;BME280;5374;42.742;23.266;2023-08-07T09:43:38;94976.81;;;31.02;31.30
10652;BME280;5374;42.742;23.266;2023-08-07T09:46:27;94978.03;;;31.18;32.51
10652;BME280;5374;42.742;23.266;2023-08-07T09:49:14;94974.50;;;31.39;31.94
10652;BME280;5374;42.742;23.266;2023-08-07T09:52:05;94971.31;;;31.55;30.81
10652;BME280;5374;42.742;23.266;2023-08-07T09:54:56;94967.81;;;31.44;31.76
10652;BME280;5374;42.742;23.266;2023-08-07T09:57:44;94968.59;;;31.48;31.12
10652;BME280;5374;42.742;23.266;2023-08-07T10:00:34;94987.41;;;31.60;29.79
10652;BME280;5374;42.742;23.266;2023-08-07T10:03:23;94985.09;;;31.30;31.95
10652;BME280;5374;42.742;23.266;2023-08-07T10:06:11;94976.47;;;31.17;30.27
10652;BME280;5374;42.742;23.266;2023-08-07T10:08:59;94980.75;;;30.97;32.52
10652;BME280;5374;42.742;23.266;2023-08-07T10:11:48;94981.16;;;31.20;32.43
10652;BME280;5374;42.742;23.266;2023-08-07T10:14:36;94987.03;;;31.22;31.57
10652;BME280;5374;42.742;23.266;2023-08-07T10:17:23;94976.47;;;31.39;31.93
10652;BME280;5374;42.742;23.266;2023-08-07T10:20:12;94986.66;;;31.35;32.13
10652;BME280;5374;42.742;23.266;2023-08-07T10:23:06;94971.75;;;31.32;31.59
10652;BME280;5374;42.742;23.266;2023-08-07T10:25:55;94973.28;;;31.44;31.17
10652;BME280;5374;42.742;23.266;2023-08-07T10:28:43;94979.97;;;31.39;31.34
10652;BME280;5374;42.742;23.266;2023-08-07T10:31:31;94981.13;;;31.45;31.58
10652;BME280;5374;42.742;23.266;2023-08-07T10:34:21;94979.56;;;31.55;29.67
10652;BME280;5374;42.742;23.266;2023-08-07T10:37:38;94973.31;;;31.30;32.06
10652;BME280;5374;42.742;23.266;2023-08-07T10:40:25;94964.31;;;31.33;32.04
10652;BME280;5374;42.742;23.266;2023-08-07T10:43:16;94977.63;;;31.27;31.24
10652;BME280;5374;42.742;23.266;2023-08-07T10:46:04;94970.97;;;31.21;32.16
10652;BME280;5374;42.742;23.266;2023-08-07T10:48:54;94967.84;;;31.22;31.71
10652;BME280;5374;42.742;23.266;2023-08-07T10:51:45;94954.91;;;31.26;31.61
10652;BME280;5374;42.742;23.266;2023-08-07T10:54:38;94945.50;;;31.24;30.99
10652;BME280;5374;42.742;23.266;2023-08-07T10:57:31;94932.94;;;31.19;32.02
10652;BME280;5374;42.742;23.266;2023-08-07T11:00:25;94941.97;;;31.09;30.11
10652;BME280;5374;42.742;23.266;2023-08-07T11:03:20;94942.28;;;30.40;30.87
10652;BME280;5374;42.742;23.266;2023-08-07T11:06:09;94949.72;;;30.36;30.30
10652;BME280;5374;42.742;23.266;2023-08-07T11:08:56;94940.34;;;30.44;31.96
10652;BME280;5374;42.742;23.266;2023-08-07T11:11:50;94928.66;;;30.65;32.37
10652;BME280;5374;42.742;23.266;2023-08-07T11:14:37;94924.72;;;30.63;31.78
10652;BME280;5374;42.742;23.266;2023-08-07T11:17:24;94908.25;;;30.55;31.83
10652;BME280;5374;42.742;23.266;2023-08-07T11:20:12;94920.78;;;30.56;31.43
10652;BME280;5374;42.742;23.266;2023-08-07T11:22:59;94904.38;;;30.64;31.62
10652;BME280;5374;42.742;23.266;2023-08-07T11:25:46;94901.22;;;30.83;31.33
10652;BME280;5374;42.742;23.266;2023-08-07T11:28:35;94916.09;;;31.21;32.36
10652;BME280;5374;42.742;23.266;2023-08-07T11:31:23;94913.75;;;31.09;32.00
10652;BME280;5374;42.742;23.266;2023-08-07T11:34:11;94913.78;;;31.16;30.44
10652;BME280;5374;42.742;23.266;2023-08-07T11:36:58;94910.59;;;31.03;32.07
10652;BME280;5374;42.742;23.266;2023-08-07T11:39:46;94909.03;;;31.31;32.49
10652;BME280;5374;42.742;23.266;2023-08-07T11:42:33;94912.59;;;31.17;31.25
10652;BME280;5374;42.742;23.266;2023-08-07T11:45:22;94901.22;;;30.90;30.90
10652;BME280;5374;42.742;23.266;2023-08-07T11:48:10;94905.94;;;30.82;31.73
10652;BME280;5374;42.742;23.266;2023-08-07T11:50:58;94893.00;;;30.79;32.28
10652;BME280;5374;42.742;23.266;2023-08-07T11:53:45;94902.03;;;31.12;32.14
10652;BME280;5374;42.742;23.266;2023-08-07T11:56:33;94897.28;;;31.09;31.38
10652;BME280;5374;42.742;23.266;2023-08-07T11:59:20;94903.16;;;31.07;33.03
10652;BME280;5374;42.742;23.266;2023-08-07T12:02:10;94899.63;;;30.96;32.92
10652;BME280;5374;42.742;23.266;2023-08-07T12:04:58;94891.81;;;30.84;32.88
10652;BME280;5374;42.742;23.266;2023-08-07T12:07:46;94898.09;;;30.81;34.10
10652;BME280;5374;42.742;23.266;2023-08-07T12:10:35;94894.19;;;30.68;34.06
10652;BME280;5374;42.742;23.266;2023-08-07T12:13:24;94898.50;;;30.62;34.33
10652;BME280;5374;42.742;23.266;2023-08-07T12:16:14;94898.91;;;30.71;33.68
10652;BME280;5374;42.742;23.266;2023-08-07T12:19:03;94888.72;;;30.71;33.61
10652;BME280;5374;42.742;23.266;2023-08-07T12:21:50;94887.91;;;30.67;33.95
10652;BME280;5374;42.742;23.266;2023-08-07T12:24:37;94883.22;;;30.68;33.90
10652;BME280;5374;42.742;23.266;2023-08-07T12:27:25;94878.53;;;30.65;34.37
10652;BME280;5374;42.742;23.266;2023-08-07T12:30:14;94876.19;;;30.70;34.23
10652;BME280;5374;42.742;23.266;2023-08-07T12:33:01;94885.16;;;30.85;34.69
10652;BME280;5374;42.742;23.266;2023-08-07T12:35:52;94888.31;;;30.87;34.07
10652;BME280;5374;42.742;23.266;2023-08-07T12:38:40;94889.47;;;30.93;34.90
10652;BME280;5374;42.742;23.266;2023-08-07T12:41:27;94891.00;;;31.01;34.61
10652;BME280;5374;42.742;23.266;2023-08-07T12:44:14;94895.72;;;31.08;35.32
10652;BME280;5374;42.742;23.266;2023-08-07T12:47:01;94897.31;;;30.80;35.21
10652;BME280;5374;42.742;23.266;2023-08-07T12:49:48;94907.47;;;30.73;35.18
10652;BME280;5374;42.742;23.266;2023-08-07T12:52:37;94908.28;;;30.70;36.08
10652;BME280;5374;42.742;23.266;2023-08-07T12:55:24;94892.63;;;30.70;35.73
10652;BME280;5374;42.742;23.266;2023-08-07T12:58:11;94896.53;;;30.66;35.60
10652;BME280;5374;42.742;23.266;2023-08-07T13:00:58;94903.13;;;30.54;36.19
10652;BME280;5374;42.742;23.266;2023-08-07T13:03:46;94896.88;;;30.36;35.81
10652;BME280;5374;42.742;23.266;2023-08-07T13:06:33;94889.41;;;30.18;36.03
10652;BME280;5374;42.742;23.266;2023-08-07T13:09:22;94897.91;;;29.92;36.46
10652;BME280;5374;42.742;23.266;2023-08-07T13:12:09;94898.25;;;29.73;36.92
10652;BME280;5374;42.742;23.266;2023-08-07T13:14:56;94913.44;;;29.63;37.37
10652;BME280;5374;42.742;23.266;2023-08-07T13:17:43;94905.88;;;29.35;37.52
10652;BME280;5374;42.742;23.266;2023-08-07T13:20:30;94908.19;;;29.30;37.98
10652;BME280;5374;42.742;23.266;2023-08-07T13:23:19;94905.97;;;28.87;38.78
10652;BME280;5374;42.742;23.266;2023-08-07T13:26:08;94914.50;;;28.82;39.52
10652;BME280;5374;42.742;23.266;2023-08-07T13:28:55;94917.44;;;28.63;39.10
10652;BME280;5374;42.742;23.266;2023-08-07T13:31:42;94908.75;;;28.50;39.61
10652;BME280;5374;42.742;23.266;2023-08-07T13:34:31;94884.63;;;28.19;39.49
10652;BME280;5374;42.742;23.266;2023-08-07T13:37:19;94907.47;;;28.37;40.86
10652;BME280;5374;42.742;23.266;2023-08-07T13:40:07;94906.97;;;28.28;39.69
10652;BME280;5374;42.742;23.266;2023-08-07T13:42:58;94920.66;;;28.32;40.62
10652;BME280;5374;42.742;23.266;2023-08-07T13:45:48;94905.09;;;27.99;40.58
10652;BME280;5374;42.742;23.266;2023-08-07T13:48:38;94920.91;;;27.82;41.30
10652;BME280;5374;42.742;23.266;2023-08-07T13:51:25;94929.06;;;27.82;40.56
10652;BME280;5374;42.742;23.266;2023-08-07T13:54:13;94926.09;;;27.61;40.38
10652;BME280;5374;42.742;23.266;2023-08-07T13:57:00;94941.41;;;27.69;41.31
10652;BME280;5374;42.742;23.266;2023-08-07T13:59:49;94946.03;;;27.65;40.31
10652;BME280;5374;42.742;23.266;2023-08-07T14:02:36;94947.69;;;27.73;40.53
10652;BME280;5374;42.742;23.266;2023-08-07T14:05:24;94932.81;;;27.67;40.93
10652;BME280;5374;42.742;23.266;2023-08-07T14:08:11;94939.03;;;27.68;40.95
10652;BME280;5374;42.742;23.266;2023-08-07T14:10:58;94941.31;;;27.62;41.15
10652;BME280;5374;42.742;23.266;2023-08-07T14:13:45;94933.41;;;27.57;41.72
10652;BME280;5374;42.742;23.266;2023-08-07T14:16:34;94942.78;;;27.56;41.38
10652;BME280;5374;42.742;23.266;2023-08-07T14:19:21;94949.75;;;27.53;41.94
10652;BME280;5374;42.742;23.266;2023-08-07T14:22:08;94954.53;;;27.60;41.72
10652;BME280;5374;42.742;23.266;2023-08-07T14:24:56;94956.72;;;27.51;41.48
10652;BME280;5374;42.742;23.266;2023-08-07T14:27:43;94960.41;;;27.36;41.38
10652;BME280;5374;42.742;23.266;2023-08-07T14:30:30;94960.25;;;27.25;42.16
10652;BME280;5374;42.742;23.266;2023-08-07T14:33:18;94963.25;;;27.16;42.83
10652;BME280;5374;42.742;23.266;2023-08-07T14:36:06;94955.22;;;27.01;42.67
10652;BME280;5374;42.742;23.266;2023-08-07T14:38:53;94968.38;;;26.95;42.49
10652;BME280;5374;42.742;23.266;2023-08-07T14:41:40;94973.72;;;26.91;42.67
10652;BME280;5374;42.742;23.266;2023-08-07T14:44:27;94968.50;;;26.79;43.33
10652;BME280;5374;42.742;23.266;2023-08-07T14:47:15;94974.16;;;26.71;43.12